sensor_id;sensor_type;location;lat;lon;timestamp;pressure;altitude;pressure_sealevel;temperature;humidity
39699;BME280;25372;50.582;12.250;2023-04-10T00:01:41;100737.19;;;1.90;85.17
39699;BME280;25372;50.582;12.250;2023-04-10T00:12:02;100731.13;;;1.91;84.99
39699;BME280;25372;50.582;12.250;2023-04-10T00:22:25;100722.03;;;1.61;85.85
39699;BME280;25372;50.582;12.250;2023-04-10T00:32:45;100712.72;;;1.46;86.45
39699;BME280;25372;50.582;12.250;2023-04-10T00:43:07;100710.75;;;1.65;86.00
39699;BME280;25372;50.582;12.250;2023-04-10T00:53:29;100710.28;;;1.35;85.75
39699;BME280;25372;50.582;12.250;2023-04-10T01:03:51;100702.63;;;1.24;86.85
39699;BME280;25372;50.582;12.250;2023-04-10T01:14:18;100713.09;;;1.10;87.13
39699;BME280;25372;50.582;12.250;2023-04-10T01:24:58;100712.34;;;1.02;87.29
39699;BME280;25372;50.582;12.250;2023-04-10T01:35:24;100728.88;;;0.85;87.02
39699;BME280;25372;50.582;12.250;2023-04-10T01:45:50;100722.03;;;0.81;87.82
39699;BME280;25372;50.582;12.250;2023-04-10T01:56:13;100710.16;;;0.57;88.34
39699;BME280;25372;50.582;12.250;2023-04-10T02:06:44;100697.38;;;0.39;88.85
39699;BME280;25372;50.582;12.250;2023-04-10T02:17:10;100694.69;;;0.52;89.21
39699;BME280;25372;50.582;12.250;2023-04-10T02:27:35;100693.00;;;0.46;88.40
39699;BME280;25372;50.582;12.250;2023-04-10T02:37:57;100691.38;;;0.36;88.21
39699;BME280;25372;50.582;12.250;2023-04-10T02:48:19;100684.53;;;0.32;88.02
39699;BME280;25372;50.582;12.250;2023-04-10T02:58:47;100681.22;;;0.11;88.24
39699;BME280;25372;50.582;12.250;2023-04-10T03:09:08;100691.38;;;0.39;87.68
39699;BME280;25372;50.582;12.250;2023-04-10T03:19:30;100688.56;;;0.64;88.73
39699;BME280;25372;50.582;12.250;2023-04-10T03:29:51;100692.63;;;0.91;88.71
39699;BME280;25372;50.582;12.250;2023-04-10T03:40:14;100693.78;;;1.42;88.28
39699;BME280;25372;50.582;12.250;2023-04-10T03:50:35;100685.00;;;1.54;86.19
39699;BME280;25372;50.582;12.250;2023-04-10T04:00:59;100700.66;;;1.45;86.80
39699;BME280;25372;50.582;12.250;2023-04-10T04:11:37;100704.56;;;1.05;87.45
39699;BME280;25372;50.582;12.250;2023-04-10T04:22:19;100712.72;;;0.63;87.75
39699;BME280;25372;50.582;12.250;2023-04-10T04:32:58;100726.50;;;0.62;89.61
39699;BME280;25372;50.582;12.250;2023-04-10T04:43:36;100722.56;;;1.14;88.66
39699;BME280;25372;50.582;12.250;2023-04-10T04:54:11;100715.41;;;1.36;87.52
39699;BME280;25372;50.582;12.250;2023-04-10T05:05:11;100722.91;;;1.61;87.02
39699;BME280;25372;50.582;12.250;2023-04-10T05:15:39;100706.38;;;1.70;87.07
39699;BME280;25372;50.582;12.250;2023-04-10T05:26:07;100731.81;;;2.64;82.89
39699;BME280;25372;50.582;12.250;2023-04-10T05:36:47;100727.94;;;2.88;83.59
39699;BME280;25372;50.582;12.250;2023-04-10T05:47:16;100735.34;;;3.10;81.93
39699;BME280;25372;50.582;12.250;2023-04-10T05:57:48;100733.00;;;2.94;82.13
39699;BME280;25372;50.582;12.250;2023-04-10T06:08:30;100728.66;;;3.85;79.52
39699;BME280;25372;50.582;12.250;2023-04-10T06:18:51;100721.56;;;5.35;74.16
39699;BME280;25372;50.582;12.250;2023-04-10T06:29:14;100718.84;;;5.70;72.69
39699;BME280;25372;50.582;12.250;2023-04-10T06:39:35;100703.66;;;5.84;71.75
39699;BME280;25372;50.582;12.250;2023-04-10T06:49:57;100719.22;;;6.16;71.66
39699;BME280;25372;50.582;12.250;2023-04-10T07:00:18;100716.06;;;6.33;69.89
39699;BME280;25372;50.582;12.250;2023-04-10T07:10:40;100706.16;;;6.44;69.92
39699;BME280;25372;50.582;12.250;2023-04-10T07:21:01;100695.50;;;7.03;68.09
39699;BME280;25372;50.582;12.250;2023-04-10T07:31:23;100691.59;;;7.15;68.59
39699;BME280;25372;50.582;12.250;2023-04-10T07:41:44;100687.00;;;7.46;66.78
39699;BME280;25372;50.582;12.250;2023-04-10T07:52:06;100683.78;;;8.07;65.93
39699;BME280;25372;50.582;12.250;2023-04-10T08:02:27;100671.34;;;8.57;64.07
39699;BME280;25372;50.582;12.250;2023-04-10T08:12:49;100670.09;;;9.07;63.25
39699;BME280;25372;50.582;12.250;2023-04-10T08:23:10;100661.69;;;9.39;62.01
39699;BME280;25372;50.582;12.250;2023-04-10T08:33:32;100661.69;;;9.77;61.48
39699;BME280;25372;50.582;12.250;2023-04-10T08:43:53;100644.13;;;9.97;60.73
39699;BME280;25372;50.582;12.250;2023-04-10T08:54:17;100626.03;;;10.28;61.02
39699;BME280;25372;50.582;12.250;2023-04-10T09:04:38;100627.66;;;10.66;59.52
39699;BME280;25372;50.582;12.250;2023-04-10T09:15:01;100611.00;;;11.00;58.99
39699;BME280;25372;50.582;12.250;2023-04-10T09:25:30;100611.47;;;11.41;57.71
39699;BME280;25372;50.582;12.250;2023-04-10T09:35:54;100595.91;;;11.84;55.41
39699;BME280;25372;50.582;12.250;2023-04-10T09:46:25;100578.56;;;12.27;54.78
39699;BME280;25372;50.582;12.250;2023-04-10T09:56:48;100562.44;;;12.48;53.76
39699;BME280;25372;50.582;12.250;2023-04-10T10:07:09;100558.03;;;12.34;54.06
39699;BME280;25372;50.582;12.250;2023-04-10T10:17:38;100535.88;;;13.09;51.58
39699;BME280;25372;50.582;12.250;2023-04-10T10:28:03;100512.31;;;13.20;51.90
39699;BME280;25372;50.582;12.250;2023-04-10T10:38:26;100506.09;;;12.79;52.82
39699;BME280;25372;50.582;12.250;2023-04-10T10:48:56;100488.63;;;14.14;49.14
39699;BME280;25372;50.582;12.250;2023-04-10T10:59:53;100476.88;;;13.92;50.72
39699;BME280;25372;50.582;12.250;2023-04-10T11:21:19;100427.75;;;14.16;48.63
39699;BME280;25372;50.582;12.250;2023-04-10T11:31:42;100404.59;;;14.45;46.52
39699;BME280;25372;50.582;12.250;2023-04-10T11:42:04;100393.28;;;14.93;45.24
39699;BME280;25372;50.582;12.250;2023-04-10T11:52:26;100382.28;;;14.87;46.34
39699;BME280;25372;50.582;12.250;2023-04-10T12:02:51;100366.81;;;14.93;43.43
39699;BME280;25372;50.582;12.250;2023-04-10T12:13:23;100349.25;;;15.28;44.85
39699;BME280;25372;50.582;12.250;2023-04-10T12:23:45;100335.03;;;15.18;43.83
39699;BME280;25372;50.582;12.250;2023-04-10T12:34:06;100333.00;;;15.21;39.55
39699;BME280;25372;50.582;12.250;2023-04-10T12:44:29;100329.03;;;15.74;39.93
39699;BME280;25372;50.582;12.250;2023-04-10T12:54:50;100316.28;;;16.02;39.80
39699;BME280;25372;50.582;12.250;2023-04-10T13:05:14;100305.31;;;15.61;38.23
39699;BME280;25372;50.582;12.250;2023-04-10T13:15:35;100302.19;;;16.25;38.92
39699;BME280;25372;50.582;12.250;2023-04-10T13:25:57;100284.13;;;16.18;35.97
39699;BME280;25372;50.582;12.250;2023-04-10T13:36:17;100267.25;;;15.28;39.62
39699;BME280;25372;50.582;12.250;2023-04-10T13:46:39;100246.47;;;15.92;38.67
39699;BME280;25372;50.582;12.250;2023-04-10T13:57:00;100226.94;;;16.48;37.38
39699;BME280;25372;50.582;12.250;2023-04-10T14:07:23;100214.84;;;15.22;38.40
39699;BME280;25372;50.582;12.250;2023-04-10T14:17:44;100214.31;;;17.16;37.44
39699;BME280;25372;50.582;12.250;2023-04-10T14:28:06;100203.66;;;16.19;36.53
39699;BME280;25372;50.582;12.250;2023-04-10T14:38:27;100180.09;;;16.70;34.44
39699;BME280;25372;50.582;12.250;2023-04-10T14:48:49;100173.34;;;17.40;33.41
39699;BME280;25372;50.582;12.250;2023-04-10T14:59:10;100161.91;;;17.39;36.17
39699;BME280;25372;50.582;12.250;2023-04-10T15:09:32;100150.84;;;17.34;35.08
39699;BME280;25372;50.582;12.250;2023-04-10T15:19:53;100122.13;;;17.49;32.89
39699;BME280;25372;50.582;12.250;2023-04-10T15:30:15;100116.41;;;16.91;34.46
39699;BME280;25372;50.582;12.250;2023-04-10T15:40:37;100090.81;;;17.02;34.50
39699;BME280;25372;50.582;12.250;2023-04-10T15:51:02;100095.84;;;16.31;36.08
39699;BME280;25372;50.582;12.250;2023-04-10T16:01:23;100074.25;;;17.10;34.74
39699;BME280;25372;50.582;12.250;2023-04-10T16:11:45;100062.38;;;16.30;35.36
39699;BME280;25372;50.582;12.250;2023-04-10T16:22:06;100045.63;;;16.30;36.33
39699;BME280;25372;50.582;12.250;2023-04-10T16:32:28;100042.91;;;14.76;37.86
39699;BME280;25372;50.582;12.250;2023-04-10T16:42:49;100028.75;;;15.12;39.05
39699;BME280;25372;50.582;12.250;2023-04-10T16:53:11;100022.81;;;14.39;40.16
39699;BME280;25372;50.582;12.250;2023-04-10T17:03:32;100015.13;;;13.53;42.78
39699;BME280;25372;50.582;12.250;2023-04-10T17:13:55;99999.34;;;13.03;42.58
39699;BME280;25372;50.582;12.250;2023-04-10T17:24:16;99989.63;;;12.27;44.62
39699;BME280;25372;50.582;12.250;2023-04-10T17:34:38;99994.56;;;11.38;49.29
39699;BME280;25372;50.582;12.250;2023-04-10T17:44:59;99987.47;;;10.69;49.03
39699;BME280;25372;50.582;12.250;2023-04-10T17:55:23;99980.59;;;9.78;52.84
39699;BME280;25372;50.582;12.250;2023-04-10T18:05:44;99964.59;;;9.83;51.75
39699;BME280;25372;50.582;12.250;2023-04-10T18:16:08;99964.41;;;9.55;53.43
39699;BME280;25372;50.582;12.250;2023-04-10T18:26:30;99955.91;;;8.55;55.55
39699;BME280;25372;50.582;12.250;2023-04-10T18:36:55;99943.19;;;8.65;55.38
39699;BME280;25372;50.582;12.250;2023-04-10T18:47:15;99932.53;;;8.34;56.33
39699;BME280;25372;50.582;12.250;2023-04-10T18:57:38;99921.72;;;8.24;56.85
39699;BME280;25372;50.582;12.250;2023-04-10T19:07:58;99916.53;;;8.23;56.81
39699;BME280;25372;50.582;12.250;2023-04-10T19:18:21;99914.94;;;7.87;58.57
39699;BME280;25372;50.582;12.250;2023-04-10T19:28:42;99892.34;;;7.50;59.29
39699;BME280;25372;50.582;12.250;2023-04-10T19:39:05;99881.59;;;7.39;59.86
39699;BME280;25372;50.582;12.250;2023-04-10T19:49:30;99863.59;;;7.33;61.58
39699;BME280;25372;50.582;12.250;2023-04-10T19:59:52;99864.81;;;7.61;60.55
39699;BME280;25372;50.582;12.250;2023-04-10T20:10:12;99862.75;;;7.32;61.50
39699;BME280;25372;50.582;12.250;2023-04-10T20:20:35;99844.78;;;6.52;64.43
39699;BME280;25372;50.582;12.250;2023-04-10T20:30:56;99827.25;;;6.18;67.56
39699;BME280;25372;50.582;12.250;2023-04-10T20:41:19;99802.00;;;5.78;71.03
39699;BME280;25372;50.582;12.250;2023-04-10T20:51:39;99785.47;;;5.58;69.66
39699;BME280;25372;50.582;12.250;2023-04-10T21:02:01;99768.50;;;5.29;70.56
39699;BME280;25372;50.582;12.250;2023-04-10T21:12:22;99771.97;;;5.29;71.44
39699;BME280;25372;50.582;12.250;2023-04-10T21:22:44;99769.81;;;5.18;72.75
39699;BME280;25372;50.582;12.250;2023-04-10T21:33:05;99765.41;;;5.00;74.20
39699;BME280;25372;50.582;12.250;2023-04-10T21:43:27;99742.47;;;5.08;74.27
39699;BME280;25372;50.582;12.250;2023-04-10T21:53:48;99718.16;;;5.09;74.82
39699;BME280;25372;50.582;12.250;2023-04-10T22:04:10;99724.88;;;4.94;75.08
39699;BME280;25372;50.582;12.250;2023-04-10T22:14:31;99712.88;;;4.47;75.75
39699;BME280;25372;50.582;12.250;2023-04-10T22:24:54;99699.34;;;4.39;77.02
39699;BME280;25372;50.582;12.250;2023-04-10T22:35:14;99687.97;;;4.41;76.46
39699;BME280;25372;50.582;12.250;2023-04-10T22:45:38;99668.78;;;4.23;77.60
39699;BME280;25372;50.582;12.250;2023-04-10T22:56:02;99657.91;;;4.56;78.10
39699;BME280;25372;50.582;12.250;2023-04-10T23:06:25;99633.25;;;4.86;72.76
39699;BME280;25372;50.582;12.250;2023-04-10T23:16:45;99618.94;;;4.96;71.72
39699;BME280;25372;50.582;12.250;2023-04-10T23:27:08;99605.59;;;6.18;65.66
39699;BME280;25372;50.582;12.250;2023-04-10T23:37:29;99582.50;;;5.73;67.58
39699;BME280;25372;50.582;12.250;2023-04-10T23:47:53;99553.66;;;6.48;63.95
39699;BME280;25372;50.582;12.250;2023-04-10T23:58:14;99520.69;;;6.97;63.33
